createdAt,value
2023-04-12T00:00:15.456Z,22.86
2023-04-12T00:02:44.904Z,22.86
2023-04-12T00:05:14.186Z,22.86
2023-04-12T00:07:46.885Z,22.86
2023-04-12T00:10:15.627Z,22.85
2023-04-12T00:12:46.384Z,22.86
2023-04-12T00:15:14.744Z,22.86
2023-04-12T00:17:43.195Z,22.86
2023-04-12T00:20:13.026Z,22.85
2023-04-12T00:22:42.569Z,22.86
2023-04-12T00:25:11.274Z,22.86
2023-04-12T00:27:39.967Z,22.85
2023-04-12T00:30:10.940Z,22.85
2023-04-12T00:32:39.472Z,22.86
2023-04-12T00:35:09.253Z,22.86
2023-04-12T00:37:38.723Z,22.85
2023-04-12T00:40:10.203Z,22.85
2023-04-12T00:42:39.102Z,22.85
2023-04-12T00:45:10.331Z,22.85
2023-04-12T00:47:39.010Z,22.84
2023-04-12T00:50:09.527Z,22.83
2023-04-12T00:52:37.901Z,22.84
2023-04-12T00:55:07.734Z,22.84
2023-04-12T00:57:38.450Z,22.83
2023-04-12T01:00:13.760Z,22.83
2023-04-12T01:02:47.676Z,22.83
2023-04-12T01:05:22.054Z,22.83
2023-04-12T01:07:56.891Z,22.82
2023-04-12T01:10:42.773Z,22.83
2023-04-12T01:13:18.376Z,22.83
2023-04-12T01:15:52.829Z,22.83
2023-04-12T01:18:23.827Z,22.82
2023-04-12T01:20:57.855Z,22.83
2023-04-12T01:23:59.011Z,22.82
2023-04-12T01:26:41.842Z,22.81
2023-04-12T01:29:13.546Z,22.82
2023-04-12T01:31:43.691Z,22.82
2023-04-12T01:34:12.800Z,22.82
2023-04-12T01:36:41.210Z,22.82
2023-04-12T01:39:09.605Z,22.82
2023-04-12T01:41:42.248Z,22.82
2023-04-12T01:44:14.851Z,22.82
2023-04-12T01:46:44.161Z,22.81
2023-04-12T01:49:13.071Z,22.81
2023-04-12T01:51:52.299Z,22.80
2023-04-12T01:54:23.965Z,22.79
2023-04-12T01:56:57.912Z,22.80
2023-04-12T01:59:32.091Z,22.80
2023-04-12T02:02:00.558Z,22.80
2023-04-12T02:04:29.030Z,22.80
2023-04-12T02:06:57.513Z,22.79
2023-04-12T02:09:26.137Z,22.79
2023-04-12T02:11:54.517Z,22.79
2023-04-12T02:14:22.887Z,22.79
2023-04-12T02:16:54.797Z,22.80
2023-04-12T02:19:23.305Z,22.78
2023-04-12T02:21:52.334Z,22.79
2023-04-12T02:24:20.686Z,22.79
2023-04-12T02:26:49.883Z,22.79
2023-04-12T02:29:18.512Z,22.79
2023-04-12T02:31:46.876Z,22.79
2023-04-12T02:34:18.275Z,22.78
2023-04-12T02:36:48.617Z,22.78
2023-04-12T02:39:18.821Z,22.78
2023-04-12T02:41:47.349Z,22.78
2023-04-12T02:44:15.709Z,22.77
2023-04-12T02:46:44.048Z,22.78
2023-04-12T02:49:12.494Z,22.78
2023-04-12T02:51:42.497Z,22.77
2023-04-12T02:54:10.931Z,22.78
2023-04-12T02:56:39.236Z,22.78
2023-04-12T02:59:07.707Z,22.78
2023-04-12T03:01:36.217Z,22.76
2023-04-12T03:04:04.607Z,22.76
2023-04-12T03:06:33.033Z,22.76
2023-04-12T03:09:02.786Z,22.76
2023-04-12T03:11:31.250Z,22.76
2023-04-12T03:13:59.590Z,22.75
2023-04-12T03:16:30.273Z,22.77
2023-04-12T03:18:59.530Z,22.76
2023-04-12T03:21:28.352Z,22.76
2023-04-12T03:23:56.918Z,22.76
2023-04-12T03:26:27.689Z,22.75
2023-04-12T03:29:00.158Z,22.77
2023-04-12T03:31:28.621Z,22.75
2023-04-12T03:33:57.246Z,22.76
2023-04-12T03:36:27.254Z,22.76
2023-04-12T03:38:55.564Z,22.75
2023-04-12T03:41:24.415Z,22.74
2023-04-12T03:43:54.219Z,22.76
2023-04-12T03:46:22.779Z,22.75
2023-04-12T03:48:52.091Z,22.75
2023-04-12T03:51:22.378Z,22.75
2023-04-12T03:53:51.113Z,22.74
2023-04-12T03:56:20.974Z,22.75
2023-04-12T03:58:49.293Z,22.75
2023-04-12T04:01:19.024Z,22.74
2023-04-12T04:03:48.331Z,22.74
2023-04-12T04:06:17.596Z,22.74
2023-04-12T04:08:46.075Z,22.74
2023-04-12T04:11:14.488Z,22.75
2023-04-12T04:13:42.892Z,22.75
2023-04-12T04:16:11.673Z,22.73
2023-04-12T04:18:41.591Z,22.75
2023-04-12T04:21:10.059Z,22.74
2023-04-12T04:23:39.648Z,22.73
2023-04-12T04:26:10.214Z,22.72
2023-04-12T04:28:39.360Z,22.74
2023-04-12T04:31:07.895Z,22.72
2023-04-12T04:33:36.727Z,22.74
2023-04-12T04:36:08.045Z,22.74
2023-04-12T04:38:36.745Z,22.72
2023-04-12T04:41:05.222Z,22.73
2023-04-12T04:43:34.228Z,22.72
2023-04-12T04:46:03.175Z,22.72
2023-04-12T04:48:31.585Z,22.73
2023-04-12T04:51:01.674Z,22.71
2023-04-12T04:53:31.484Z,22.71
2023-04-12T04:56:01.142Z,22.72
2023-04-12T04:58:29.563Z,22.71
2023-04-12T05:00:59.725Z,22.71
2023-04-12T05:03:30.455Z,22.72
2023-04-12T05:05:59.454Z,22.71
2023-04-12T05:08:28.758Z,22.72
2023-04-12T05:10:58.876Z,22.73
2023-04-12T05:13:27.245Z,22.71
2023-04-12T05:15:55.701Z,22.71
2023-04-12T05:18:24.130Z,22.70
2023-04-12T05:20:52.517Z,22.70
2023-04-12T05:23:21.099Z,22.70
2023-04-12T05:25:50.171Z,22.75
2023-04-12T05:28:19.886Z,22.73
2023-04-12T05:30:48.325Z,22.73
2023-04-12T05:33:16.905Z,22.78
2023-04-12T05:35:45.498Z,22.78
2023-04-12T05:38:13.958Z,22.80
2023-04-12T05:40:44.256Z,22.78
2023-04-12T05:43:13.561Z,22.79
2023-04-12T05:45:43.390Z,22.78
2023-04-12T05:48:11.752Z,22.81
2023-04-12T05:50:40.107Z,22.85
2023-04-12T05:53:08.632Z,22.87
2023-04-12T05:55:38.192Z,22.87
2023-04-12T05:58:07.175Z,22.82
2023-04-12T06:00:36.725Z,22.81
2023-04-12T06:03:06.790Z,22.80
2023-04-12T06:05:35.880Z,22.79
2023-04-12T06:08:05.632Z,22.80
2023-04-12T06:10:34.301Z,22.83
2023-04-12T06:13:02.959Z,22.80
2023-04-12T06:15:32.227Z,22.73
2023-04-12T06:18:00.847Z,22.72
2023-04-12T06:20:30.720Z,22.79
2023-04-12T06:22:59.121Z,22.80
2023-04-12T06:25:27.618Z,22.81
2023-04-12T06:27:56.056Z,22.79
2023-04-12T06:30:24.655Z,22.76
2023-04-12T06:32:52.995Z,22.78
2023-04-12T06:35:21.708Z,22.80
2023-04-12T06:37:51.426Z,22.78
2023-04-12T06:40:19.800Z,22.80
2023-04-12T06:42:48.231Z,22.80
2023-04-12T06:45:17.171Z,22.79
2023-04-12T06:47:45.601Z,22.78
2023-04-12T06:50:14.021Z,22.78
2023-04-12T06:52:42.408Z,22.77
2023-04-12T06:55:12.391Z,22.77
2023-04-12T06:57:41.110Z,22.78
2023-04-12T07:00:11.223Z,22.78
2023-04-12T07:02:39.912Z,22.80
2023-04-12T07:05:09.367Z,22.79
2023-04-12T07:07:37.726Z,22.80
2023-04-12T07:10:07.952Z,22.80
2023-04-12T07:12:37.675Z,22.82
2023-04-12T07:15:07.248Z,22.81
2023-04-12T07:17:35.709Z,22.80
2023-04-12T07:20:04.368Z,22.79
2023-04-12T07:22:33.083Z,22.80
2023-04-12T07:25:01.717Z,22.79
2023-04-12T07:27:30.219Z,22.80
2023-04-12T07:30:00.020Z,22.78
2023-04-12T07:32:28.474Z,22.78
2023-04-12T07:34:56.855Z,22.78
2023-04-12T07:37:25.245Z,22.79
2023-04-12T07:39:53.719Z,22.79
2023-04-12T07:42:22.157Z,22.79
2023-04-12T07:44:50.537Z,22.79
2023-04-12T07:47:20.243Z,22.79
2023-04-12T07:49:48.618Z,22.80
2023-04-12T07:52:16.978Z,22.79
2023-04-12T07:54:45.410Z,22.79
2023-04-12T07:57:13.777Z,22.80
2023-04-12T07:59:42.143Z,22.80
2023-04-12T08:02:10.604Z,22.83
2023-04-12T08:04:44.351Z,22.84
2023-04-12T08:07:12.841Z,22.86
2023-04-12T08:09:41.235Z,22.85
2023-04-12T08:12:09.802Z,22.86
2023-04-12T08:14:39.702Z,22.86
2023-04-12T08:17:09.245Z,22.90
2023-04-12T08:19:39.230Z,22.91
2023-04-12T08:22:08.338Z,22.90
2023-04-12T08:24:36.830Z,22.90
2023-04-12T08:27:05.384Z,22.90
2023-04-12T08:29:34.983Z,22.91
2023-04-12T08:32:04.084Z,22.92
2023-04-12T08:34:33.186Z,22.92
2023-04-12T08:37:03.098Z,22.93
2023-04-12T08:39:32.920Z,22.92
2023-04-12T08:42:02.873Z,22.96
2023-04-12T08:44:37.958Z,22.93
2023-04-12T08:47:07.315Z,22.92
2023-04-12T08:49:36.033Z,22.92
2023-04-12T08:52:07.590Z,22.91
2023-04-12T08:54:36.211Z,22.92
2023-04-12T08:57:06.627Z,22.92
2023-04-12T08:59:38.633Z,22.92
2023-04-12T09:02:07.195Z,22.90
2023-04-12T09:04:35.984Z,22.90
2023-04-12T09:07:05.896Z,22.90
2023-04-12T09:09:44.794Z,22.91
2023-04-12T09:12:13.492Z,22.92
2023-04-12T09:14:44.102Z,22.92
2023-04-12T09:17:24.922Z,22.93
2023-04-12T09:19:53.577Z,22.94
2023-04-12T09:22:36.323Z,22.95
2023-04-12T09:25:05.050Z,22.94
2023-04-12T09:27:48.178Z,22.94
2023-04-12T09:30:18.316Z,22.93
2023-04-12T09:32:49.318Z,22.93
2023-04-12T09:35:18.080Z,22.91
2023-04-12T09:37:48.120Z,22.91
2023-04-12T09:40:17.041Z,22.91
2023-04-12T09:42:53.536Z,22.89
2023-04-12T09:45:24.055Z,22.89
2023-04-12T09:47:52.619Z,22.90
2023-04-12T09:50:22.991Z,22.90
2023-04-12T09:52:54.467Z,22.90
2023-04-12T09:55:23.424Z,22.89
2023-04-12T09:57:53.242Z,22.88
2023-04-12T10:00:23.642Z,22.89
2023-04-12T10:02:54.096Z,22.90
2023-04-12T10:05:26.366Z,22.90
2023-04-12T10:07:57.330Z,22.90
2023-04-12T10:10:26.007Z,22.90
2023-04-12T10:12:54.490Z,22.90
2023-04-12T10:15:23.269Z,22.90
2023-04-12T10:17:54.060Z,22.91
2023-04-12T10:20:27.007Z,22.91
2023-04-12T10:22:59.645Z,22.97
2023-04-12T10:25:31.024Z,22.99
2023-04-12T10:28:00.064Z,22.94
2023-04-12T10:30:29.616Z,22.92
2023-04-12T10:33:14.761Z,22.92
2023-04-12T10:35:55.596Z,22.92
2023-04-12T10:38:27.357Z,22.91
2023-04-12T10:41:18.380Z,22.91
2023-04-12T10:43:47.007Z,22.96
2023-04-12T10:46:50.543Z,22.94
2023-04-12T10:49:19.376Z,22.96
2023-04-12T10:52:13.896Z,22.96
2023-04-12T10:54:43.734Z,22.97
2023-04-12T10:57:44.359Z,22.95
2023-04-12T11:00:14.463Z,22.94
2023-04-12T11:03:09.966Z,22.93
2023-04-12T11:06:12.691Z,22.93
2023-04-12T11:08:50.513Z,22.93
2023-04-12T11:11:23.359Z,22.93
2023-04-12T11:13:57.035Z,22.96
2023-04-12T11:16:25.544Z,22.94
2023-04-12T11:18:53.929Z,22.96
2023-04-12T11:21:22.533Z,22.96
2023-04-12T11:23:51.200Z,22.94
2023-04-12T11:26:22.746Z,22.94
2023-04-12T11:28:53.310Z,22.94
2023-04-12T11:31:23.292Z,22.96
2023-04-12T11:33:51.943Z,22.94
2023-04-12T11:36:20.264Z,22.93
2023-04-12T11:38:50.355Z,22.93
2023-04-12T11:41:18.786Z,22.93
2023-04-12T11:43:48.535Z,22.92
2023-04-12T11:46:18.439Z,22.93
2023-04-12T11:48:47.150Z,22.92
2023-04-12T11:51:24.794Z,22.92
2023-04-12T11:53:57.215Z,22.93
2023-04-12T11:56:26.442Z,22.97
2023-04-12T11:58:56.292Z,22.94
2023-04-12T12:01:24.777Z,22.94
2023-04-12T12:03:53.220Z,22.93
2023-04-12T12:06:22.471Z,22.93
2023-04-12T12:08:51.642Z,22.92
2023-04-12T12:11:21.572Z,22.93
2023-04-12T12:13:50.977Z,22.92
2023-04-12T12:16:25.657Z,22.99
2023-04-12T12:18:54.120Z,22.99
2023-04-12T12:21:22.647Z,22.97
2023-04-12T12:23:51.160Z,22.97
2023-04-12T12:26:22.767Z,22.94
2023-04-12T12:28:52.509Z,22.93
2023-04-12T12:31:23.832Z,22.86
2023-04-12T12:33:56.908Z,22.96
2023-04-12T12:36:32.769Z,22.96
2023-04-12T12:39:07.065Z,22.98
2023-04-12T12:41:35.618Z,22.98
2023-04-12T12:44:04.080Z,22.92
2023-04-12T12:49:05.384Z,22.97
2023-04-12T12:51:33.923Z,22.97
2023-04-12T12:54:02.278Z,22.97
2023-04-12T12:56:30.707Z,22.97
2023-04-12T12:58:59.212Z,22.98
2023-04-12T13:01:28.410Z,22.93
2023-04-12T13:03:59.234Z,22.99
2023-04-12T13:06:29.440Z,22.99
2023-04-12T13:08:57.997Z,22.99
2023-04-12T13:11:26.735Z,23.00
2023-04-12T13:13:55.083Z,23.01
2023-04-12T13:16:25.434Z,23.01
2023-04-12T13:18:55.506Z,23.00
2023-04-12T13:21:27.127Z,22.99
2023-04-12T13:23:55.489Z,23.01
2023-04-12T13:26:25.745Z,23.01
2023-04-12T13:28:54.306Z,23.02
2023-04-12T13:31:22.778Z,23.02
2023-04-12T13:33:51.300Z,23.02
2023-04-12T13:36:19.654Z,23.02
2023-04-12T13:38:49.469Z,23.01
2023-04-12T13:41:19.139Z,23.02
2023-04-12T13:43:47.541Z,23.02
2023-04-12T13:46:16.106Z,23.02
2023-04-12T13:48:44.612Z,23.03
2023-04-12T13:51:13.102Z,23.02
2023-04-12T13:53:41.620Z,23.03
2023-04-12T13:56:11.910Z,23.06
2023-04-12T13:58:40.731Z,23.05
2023-04-12T14:01:10.057Z,23.05
2023-04-12T14:03:38.621Z,23.05
2023-04-12T14:06:08.287Z,23.04
2023-04-12T14:08:36.735Z,23.04
2023-04-12T14:11:05.596Z,23.07
2023-04-12T14:13:35.348Z,23.09
2023-04-12T14:16:03.930Z,23.10
2023-04-12T14:18:32.362Z,23.10
2023-04-12T14:21:00.837Z,23.08
2023-04-12T14:23:30.751Z,23.10
2023-04-12T14:25:59.264Z,23.11
2023-04-12T14:28:30.934Z,23.11
2023-04-12T14:31:04.311Z,23.12
2023-04-12T14:33:34.184Z,23.08
2023-04-12T14:36:05.193Z,23.03
2023-04-12T14:38:33.737Z,23.06
2023-04-12T14:41:02.262Z,23.06
2023-04-12T14:43:30.586Z,23.10
2023-04-12T14:46:00.715Z,23.07
2023-04-12T14:48:29.251Z,23.08
2023-04-12T14:50:57.840Z,23.10
2023-04-12T14:53:26.538Z,23.13
2023-04-12T14:55:54.912Z,23.13
2023-04-12T14:58:23.390Z,23.14
2023-04-12T15:00:51.755Z,23.13
2023-04-12T15:03:21.812Z,23.11
2023-04-12T15:05:50.422Z,23.07
2023-04-12T15:08:18.885Z,23.10
2023-04-12T15:10:47.345Z,23.10
2023-04-12T15:13:15.866Z,23.10
2023-04-12T15:15:47.506Z,23.09
2023-04-12T15:18:16.115Z,23.10
2023-04-12T15:20:46.117Z,23.10
2023-04-12T15:23:14.588Z,23.10
2023-04-12T15:25:43.106Z,23.09
2023-04-12T15:28:11.640Z,23.10
2023-04-12T15:30:40.135Z,23.13
2023-04-12T15:33:08.535Z,23.14
2023-04-12T15:35:37.344Z,23.10
2023-04-12T15:38:07.293Z,22.98
2023-04-12T15:40:35.901Z,22.90
2023-04-12T15:43:04.621Z,22.83
2023-04-12T15:48:13.995Z,22.81
2023-04-12T15:50:42.432Z,22.93
2023-04-12T15:53:12.238Z,22.93
2023-04-12T15:55:41.176Z,22.97
2023-04-12T15:58:10.374Z,22.97
2023-04-12T16:00:39.484Z,22.99
2023-04-12T16:03:08.184Z,22.98
2023-04-12T16:05:36.986Z,22.99
2023-04-12T16:08:06.033Z,22.98
2023-04-12T16:10:38.434Z,23.00
2023-04-12T16:13:07.244Z,22.99
2023-04-12T16:15:36.224Z,23.00
2023-04-12T16:18:05.409Z,23.00
2023-04-12T16:20:34.063Z,23.00
2023-04-12T16:23:03.736Z,23.00
2023-04-12T16:25:32.370Z,23.00
2023-04-12T16:28:02.773Z,22.97
2023-04-12T16:30:32.130Z,22.99
2023-04-12T16:33:00.779Z,22.99
2023-04-12T16:35:29.245Z,23.00
2023-04-12T16:37:57.789Z,22.99
2023-04-12T16:40:26.862Z,22.99
2023-04-12T16:42:55.416Z,22.99
2023-04-12T16:45:26.024Z,22.99
2023-04-12T16:47:54.888Z,22.98
2023-04-12T16:50:24.385Z,22.99
2023-04-12T16:52:52.939Z,22.98
2023-04-12T16:55:21.468Z,22.98
2023-04-12T16:57:53.209Z,22.98
2023-04-12T17:00:22.913Z,22.97
2023-04-12T17:02:54.050Z,22.97
2023-04-12T17:05:23.336Z,22.96
2023-04-12T17:07:54.409Z,22.98
2023-04-12T17:10:24.588Z,22.98
2023-04-12T17:12:55.039Z,22.98
2023-04-12T17:15:25.532Z,22.98
2023-04-12T17:18:01.867Z,22.97
2023-04-12T17:20:30.831Z,22.96
2023-04-12T17:22:59.825Z,23.03
2023-04-12T17:25:29.320Z,23.02
2023-04-12T17:27:57.718Z,22.98
2023-04-12T17:30:26.665Z,23.01
2023-04-12T17:32:56.672Z,23.03
2023-04-12T17:35:25.760Z,23.03
2023-04-12T17:37:54.356Z,23.01
2023-04-12T17:40:23.112Z,23.03
2023-04-12T17:42:51.668Z,23.02
2023-04-12T17:45:21.946Z,23.00
2023-04-12T17:47:50.682Z,23.02
2023-04-12T17:50:20.540Z,23.03
2023-04-12T17:52:48.973Z,23.03
2023-04-12T17:55:19.525Z,23.05
2023-04-12T17:57:47.986Z,23.04
2023-04-12T18:00:19.059Z,23.03
2023-04-12T18:02:47.860Z,23.02
2023-04-12T18:05:17.026Z,23.02
2023-04-12T18:07:47.508Z,23.11
2023-04-12T18:10:18.945Z,23.08
2023-04-12T18:12:49.746Z,23.05
2023-04-12T18:15:18.403Z,23.04
2023-04-12T18:17:46.909Z,23.04
2023-04-12T18:20:16.608Z,23.01
2023-04-12T18:22:48.894Z,22.99
2023-04-12T18:25:20.621Z,22.99
2023-04-12T18:27:49.206Z,22.98
2023-04-12T18:30:19.584Z,22.98
2023-04-12T18:32:48.546Z,22.97
2023-04-12T18:35:17.392Z,22.98
2023-04-12T18:37:47.297Z,23.02
2023-04-12T18:40:16.185Z,23.04
2023-04-12T18:42:45.992Z,23.05
2023-04-12T18:45:14.477Z,23.04
2023-04-12T18:47:44.729Z,23.00
2023-04-12T18:50:14.139Z,23.02
2023-04-12T18:52:42.527Z,23.01
2023-04-12T18:55:12.381Z,23.01
2023-04-12T18:57:40.855Z,23.01
2023-04-12T19:00:13.693Z,23.02
2023-04-12T19:02:42.178Z,23.01
2023-04-12T19:05:11.195Z,23.01
2023-04-12T19:07:39.884Z,23.00
2023-04-12T19:10:12.668Z,23.00
2023-04-12T19:12:41.166Z,23.01
2023-04-12T19:15:11.900Z,23.01
2023-04-12T19:17:40.693Z,23.02
2023-04-12T19:20:11.067Z,23.00
2023-04-12T19:22:39.657Z,23.00
2023-04-12T19:25:09.947Z,23.00
2023-04-12T19:27:40.357Z,23.01
2023-04-12T19:30:13.028Z,23.01
2023-04-12T19:32:42.937Z,22.99
2023-04-12T19:35:12.049Z,23.01
2023-04-12T19:37:41.011Z,23.01
2023-04-12T19:40:12.581Z,23.00
2023-04-12T19:42:42.933Z,22.99
2023-04-12T19:45:11.579Z,23.00
2023-04-12T19:47:44.815Z,22.99
2023-04-12T19:50:15.130Z,23.00
2023-04-12T19:52:43.985Z,22.98
2023-04-12T19:55:13.073Z,23.01
2023-04-12T19:57:43.228Z,23.00
2023-04-12T20:00:19.698Z,22.99
2023-04-12T20:02:52.069Z,22.99
2023-04-12T20:05:22.371Z,22.99
2023-04-12T20:07:52.640Z,22.99
2023-04-12T20:10:21.421Z,22.99
2023-04-12T20:12:51.416Z,22.99
2023-04-12T20:15:19.908Z,22.99
2023-04-12T20:17:48.621Z,23.01
2023-04-12T20:20:17.392Z,22.99
2023-04-12T20:22:47.182Z,22.99
2023-04-12T20:25:16.562Z,23.01
2023-04-12T20:27:51.593Z,22.99
2023-04-12T20:30:22.801Z,23.01
2023-04-12T20:32:54.492Z,22.99
2023-04-12T20:35:23.464Z,23.02
2023-04-12T20:37:51.932Z,23.01
2023-04-12T20:40:23.359Z,23.03
2023-04-12T20:42:52.209Z,23.01
2023-04-12T20:45:23.492Z,23.00
2023-04-12T20:47:52.133Z,23.02
2023-04-12T20:50:23.112Z,23.01
2023-04-12T20:52:52.545Z,22.99
2023-04-12T20:55:22.741Z,23.00
2023-04-12T20:57:55.903Z,22.99
2023-04-12T21:00:26.059Z,22.99
2023-04-12T21:02:54.846Z,22.98
2023-04-12T21:05:23.546Z,22.99
2023-04-12T21:07:51.891Z,22.99
2023-04-12T21:10:20.437Z,22.99
2023-04-12T21:12:48.952Z,22.99
2023-04-12T21:15:21.755Z,22.99
2023-04-12T21:17:52.474Z,22.99
2023-04-12T21:20:21.855Z,22.98
2023-04-12T21:22:52.231Z,22.99
2023-04-12T21:25:21.342Z,22.98
2023-04-12T21:27:50.507Z,22.99
2023-04-12T21:30:19.736Z,22.98
2023-04-12T21:32:48.229Z,22.97
2023-04-12T21:35:18.396Z,22.98
2023-04-12T21:37:46.833Z,22.98
2023-04-12T21:40:16.131Z,22.97
2023-04-12T21:42:45.094Z,22.97
2023-04-12T21:45:14.430Z,22.97
2023-04-12T21:47:43.186Z,22.98
2023-04-12T21:50:12.162Z,22.98
2023-04-12T21:52:44.143Z,22.96
2023-04-12T21:55:12.792Z,22.97
2023-04-12T21:57:41.548Z,22.97
2023-04-12T22:00:11.518Z,22.97
2023-04-12T22:02:40.526Z,22.97
2023-04-12T22:05:09.784Z,22.97
2023-04-12T22:07:41.613Z,22.97
2023-04-12T22:10:12.538Z,22.96
2023-04-12T22:12:41.197Z,22.96
2023-04-12T22:15:11.958Z,22.96
2023-04-12T22:17:41.147Z,22.96
2023-04-12T22:20:11.119Z,22.94
2023-04-12T22:22:39.934Z,22.96
2023-04-12T22:25:12.136Z,22.96
2023-04-12T22:27:42.312Z,22.96
2023-04-12T22:30:11.646Z,22.96
2023-04-12T22:32:40.340Z,22.94
2023-04-12T22:35:10.327Z,22.96
2023-04-12T22:37:39.080Z,22.94
2023-04-12T22:40:11.863Z,22.94
2023-04-12T22:42:46.361Z,22.94
2023-04-12T22:45:15.628Z,22.95
2023-04-12T22:47:44.294Z,22.96
2023-04-12T22:50:13.238Z,22.94
2023-04-12T22:52:42.006Z,22.94
2023-04-12T22:55:12.874Z,22.94
2023-04-12T22:57:42.738Z,22.94
2023-04-12T23:00:16.981Z,22.94
2023-04-12T23:02:47.848Z,22.93
2023-04-12T23:05:16.609Z,22.93
2023-04-12T23:07:45.130Z,22.94
2023-04-12T23:10:13.602Z,22.92
2023-04-12T23:12:43.761Z,22.93
2023-04-12T23:15:12.809Z,22.94
2023-04-12T23:17:42.035Z,22.94
2023-04-12T23:20:13.449Z,22.92
2023-04-12T23:22:57.275Z,22.93
2023-04-12T23:25:29.232Z,22.93
2023-04-12T23:27:59.078Z,22.93
2023-04-12T23:30:29.833Z,22.93
2023-04-12T23:32:58.429Z,22.93
2023-04-12T23:35:27.056Z,22.96
2023-04-12T23:37:56.131Z,22.94
2023-04-12T23:40:25.575Z,22.93
2023-04-12T23:42:54.487Z,22.93
2023-04-12T23:45:24.565Z,22.92
2023-04-12T23:47:53.038Z,22.92
2023-04-12T23:50:21.577Z,22.92
2023-04-12T23:52:49.936Z,22.92
2023-04-12T23:55:18.633Z,22.92
2023-04-12T23:57:47.054Z,22.92
